Terminal Aerodrome Forecast
Issued by NWS Spokane, WA

Home | Current Version | Previous Version | Text Only | Print | Product List | Glossary On
Versions: 1 2 3 4 5 6 7 8 9 10 11 12 13 14 15 16 17 18
000
FTUS46 KOTX 092321
TAFEAT
TAF
KEAT 092321Z 1000/1024 00000KT 4SM -SN BR BKN026 OVC040
      TEMPO 1000/1003 2SM -SN BR
     FM100300 VRB03KT 2SM -SN OVC012
     FM101200 31003KT 6SM BR BKN008 BKN015
     FM101800 VRB03KT 4SM BR OVC015=

USA.gov is the U.S. government's official web portal to all federal, state and local government web resources and services.